createdAt,value
2018-07-22T00:00:35.820Z,23.30
2018-07-22T00:01:35.760Z,22.50
2018-07-22T00:03:29.060Z,22.70
2018-07-22T00:04:28.979Z,23.20
2018-07-22T00:06:22.283Z,23.30
2018-07-22T00:07:22.209Z,23.50
2018-07-22T00:09:15.503Z,23.50
2018-07-22T00:10:15.423Z,23.00
2018-07-22T00:12:08.704Z,23.80
2018-07-22T00:13:08.645Z,23.60
2018-07-22T00:15:01.949Z,23.30
2018-07-22T00:16:01.865Z,23.00
2018-07-22T00:17:55.171Z,23.00
2018-07-22T00:18:55.088Z,22.90
2018-07-22T00:20:48.369Z,23.60
2018-07-22T00:21:48.309Z,23.50
2018-07-22T00:23:41.607Z,24.20
2018-07-22T00:24:41.528Z,23.60
2018-07-22T00:26:34.813Z,23.00
2018-07-22T00:27:34.748Z,22.90
2018-07-22T00:29:28.047Z,23.30
2018-07-22T00:30:27.968Z,23.40
2018-07-22T00:32:21.377Z,23.30
2018-07-22T00:33:21.317Z,23.00
2018-07-22T00:35:14.617Z,23.30
2018-07-22T00:36:14.537Z,23.20
2018-07-22T00:38:07.838Z,23.50
2018-07-22T00:39:07.759Z,22.70
2018-07-22T00:41:01.144Z,22.70
2018-07-22T00:42:00.978Z,23.50
2018-07-22T00:43:54.280Z,24.00
2018-07-22T00:44:54.200Z,23.60
2018-07-22T00:46:47.586Z,24.70
2018-07-22T00:47:47.422Z,24.40
2018-07-22T00:49:40.724Z,24.80
2018-07-22T00:50:40.646Z,24.70
2018-07-22T00:52:33.923Z,24.60
2018-07-22T00:53:33.862Z,24.70
2018-07-22T00:55:27.161Z,25.10
2018-07-22T00:56:27.082Z,24.20
2018-07-22T00:58:20.374Z,24.90
2018-07-22T00:59:20.294Z,24.80
2018-07-22T01:01:13.678Z,24.20
2018-07-22T01:02:13.514Z,23.60
2018-07-22T01:04:06.813Z,25.00
2018-07-22T01:05:06.733Z,23.90
2018-07-22T01:07:00.015Z,24.70
2018-07-22T01:07:59.954Z,23.70
2018-07-22T01:09:53.253Z,24.90
2018-07-22T01:10:53.174Z,25.20
2018-07-22T01:12:46.455Z,24.10
2018-07-22T01:13:46.394Z,24.30
2018-07-22T01:15:39.693Z,25.00
2018-07-22T01:16:39.613Z,25.40
2018-07-22T01:18:32.905Z,25.40
2018-07-22T01:19:32.825Z,23.80
2018-07-22T01:21:26.105Z,24.80
2018-07-22T01:22:26.046Z,24.20
2018-07-22T01:24:19.395Z,25.20
2018-07-22T01:25:19.315Z,25.70
2018-07-22T01:27:12.595Z,24.30
2018-07-22T01:28:12.535Z,23.80
2018-07-22T01:30:05.835Z,25.10
2018-07-22T01:31:05.755Z,24.10
2018-07-22T01:32:59.035Z,24.60
2018-07-22T01:33:58.974Z,25.60
2018-07-22T01:35:52.272Z,24.60
2018-07-22T01:36:52.194Z,24.90
2018-07-22T01:38:45.483Z,23.50
2018-07-22T01:39:45.404Z,23.60
2018-07-22T01:41:38.684Z,24.60
2018-07-22T01:42:38.624Z,24.90
2018-07-22T01:44:31.913Z,24.90
2018-07-22T01:45:31.837Z,24.80
2018-07-22T01:47:25.111Z,23.70
2018-07-22T01:48:25.053Z,25.10
2018-07-22T01:50:18.352Z,25.00
2018-07-22T01:51:18.270Z,25.80
2018-07-22T01:53:11.551Z,24.90
2018-07-22T01:54:11.489Z,25.30
2018-07-22T01:56:04.779Z,25.20
2018-07-22T01:57:04.697Z,24.10
2018-07-22T01:58:57.987Z,24.40
2018-07-22T01:59:57.908Z,24.20
2018-07-22T02:01:51.188Z,25.00
2018-07-22T02:02:51.126Z,25.20
2018-07-22T02:04:44.431Z,25.50
2018-07-22T02:05:44.346Z,25.90
2018-07-22T02:07:37.625Z,26.00
2018-07-22T02:08:37.564Z,25.10
2018-07-22T02:10:30.863Z,26.40
2018-07-22T02:11:30.782Z,26.10
2018-07-22T02:13:24.062Z,26.30
2018-07-22T02:14:23.999Z,26.00
2018-07-22T02:16:17.393Z,26.20
2018-07-22T02:17:17.311Z,25.50
2018-07-22T02:19:10.610Z,26.40
2018-07-22T02:20:10.530Z,26.40
2018-07-22T02:22:03.809Z,25.30
2018-07-22T02:23:03.749Z,25.80
2018-07-22T02:24:57.040Z,26.00
2018-07-22T02:25:56.958Z,25.60
2018-07-22T02:27:50.228Z,26.40
2018-07-22T02:28:50.166Z,26.50
2018-07-22T02:30:43.465Z,27.10
2018-07-22T02:31:43.385Z,27.20
2018-07-22T02:33:36.656Z,25.90
2018-07-22T02:34:36.593Z,25.40
2018-07-22T02:36:29.896Z,26.20
2018-07-22T02:37:29.811Z,26.30
2018-07-22T02:39:23.112Z,26.90
2018-07-22T02:40:23.031Z,26.80
2018-07-22T02:42:16.297Z,26.30
2018-07-22T02:43:16.237Z,26.60
2018-07-22T02:45:09.535Z,28.00
2018-07-22T02:46:09.454Z,27.20
2018-07-22T02:48:02.727Z,28.40
2018-07-22T02:49:02.666Z,28.20
2018-07-22T02:50:55.962Z,28.00
2018-07-22T02:51:55.881Z,28.90
2018-07-22T02:53:49.160Z,29.80
2018-07-22T02:54:49.103Z,28.70
2018-07-22T02:56:42.394Z,30.60
2018-07-22T02:57:42.317Z,29.80
2018-07-22T02:59:35.613Z,29.10
2018-07-22T03:00:35.531Z,29.80
2018-07-22T03:02:28.802Z,30.60
2018-07-22T03:03:28.750Z,30.20
2018-07-22T03:05:22.038Z,30.80
2018-07-22T03:06:21.957Z,29.80
2018-07-22T03:08:15.231Z,30.80
2018-07-22T03:09:15.169Z,31.50
2018-07-22T03:11:08.572Z,31.00
2018-07-22T03:12:08.377Z,31.10
2018-07-22T03:14:01.659Z,31.20
2018-07-22T03:15:01.595Z,30.60
2018-07-22T03:16:54.894Z,30.00
2018-07-22T03:17:54.816Z,31.20
2018-07-22T03:19:48.110Z,31.30
2018-07-22T03:20:48.031Z,31.40
2018-07-22T03:22:41.375Z,30.80
2018-07-22T03:23:41.310Z,30.30
2018-07-22T03:25:34.610Z,28.90
2018-07-22T03:26:34.530Z,29.40
2018-07-22T03:28:27.797Z,31.70
2018-07-22T03:29:27.736Z,31.20
2018-07-22T03:31:21.033Z,31.30
2018-07-22T03:32:20.955Z,30.90
2018-07-22T03:34:14.232Z,29.50
2018-07-22T03:35:14.171Z,30.60
2018-07-22T03:37:07.571Z,31.60
2018-07-22T03:38:07.390Z,31.60
2018-07-22T03:40:01.289Z,31.60
2018-07-22T03:41:00.605Z,30.70
2018-07-22T03:42:53.883Z,31.60
2018-07-22T03:43:53.822Z,32.50
2018-07-22T03:45:47.120Z,32.20
2018-07-22T03:46:47.039Z,31.60
2018-07-22T03:48:40.309Z,31.00
2018-07-22T03:49:40.246Z,31.60
2018-07-22T03:51:33.648Z,32.60
2018-07-22T03:52:33.464Z,32.80
2018-07-22T03:54:26.847Z,31.50
2018-07-22T03:55:26.680Z,31.70
2018-07-22T03:57:19.983Z,30.20
2018-07-22T03:58:19.904Z,32.20
2018-07-22T04:00:13.200Z,32.60
2018-07-22T04:01:13.119Z,31.30
2018-07-22T04:03:06.418Z,32.20
2018-07-22T04:04:06.335Z,32.00
2018-07-22T04:05:59.632Z,31.30
2018-07-22T04:06:59.598Z,30.90
2018-07-22T04:08:52.821Z,30.90
2018-07-22T04:09:52.759Z,31.60
2018-07-22T04:11:46.054Z,30.80
2018-07-22T04:12:45.974Z,30.20
2018-07-22T04:14:39.374Z,31.40
2018-07-22T04:15:39.312Z,30.70
2018-07-22T04:17:32.609Z,31.20
2018-07-22T04:18:32.529Z,30.20
2018-07-22T04:20:25.828Z,30.10
2018-07-22T04:21:25.806Z,30.20
2018-07-22T04:23:19.023Z,31.40
2018-07-22T04:24:18.962Z,31.20
2018-07-22T04:26:12.258Z,29.90
2018-07-22T04:27:12.179Z,30.70
2018-07-22T04:29:05.466Z,30.40
2018-07-22T04:30:05.404Z,30.00
2018-07-22T04:31:58.703Z,30.00
2018-07-22T04:32:58.620Z,30.20
2018-07-22T04:34:51.899Z,30.10
2018-07-22T04:35:51.837Z,29.80
2018-07-22T04:37:45.135Z,29.00
2018-07-22T04:38:45.053Z,29.80
2018-07-22T04:40:38.352Z,29.60
2018-07-22T04:41:38.272Z,29.20
2018-07-22T04:43:31.551Z,28.90
2018-07-22T04:44:31.493Z,28.20
2018-07-22T04:46:24.786Z,30.00
2018-07-22T04:47:24.707Z,29.10
2018-07-22T04:49:17.985Z,29.10
2018-07-22T04:50:17.923Z,29.90
2018-07-22T04:52:11.220Z,29.10
2018-07-22T04:53:11.139Z,29.30
2018-07-22T04:55:04.417Z,29.00
2018-07-22T04:56:04.370Z,29.30
2018-07-22T04:57:57.757Z,27.80
2018-07-22T04:58:57.565Z,27.80
2018-07-22T05:00:50.861Z,29.20
2018-07-22T05:01:50.781Z,29.10
2018-07-22T05:03:44.060Z,27.80
2018-07-22T05:04:43.997Z,29.20
2018-07-22T05:06:37.396Z,29.20
2018-07-22T05:07:37.315Z,29.40
2018-07-22T05:09:30.592Z,29.00
2018-07-22T05:10:30.530Z,29.30
2018-07-22T05:12:23.829Z,28.00
2018-07-22T05:13:23.748Z,29.10
2018-07-22T05:15:17.029Z,28.20
2018-07-22T05:16:16.968Z,28.60
2018-07-22T05:18:10.260Z,28.70
2018-07-22T05:19:10.176Z,27.80
2018-07-22T05:21:03.473Z,28.40
2018-07-22T05:22:03.391Z,27.00
2018-07-22T05:23:56.670Z,28.50
2018-07-22T05:24:56.609Z,27.70
2018-07-22T05:26:49.906Z,27.50
2018-07-22T05:27:49.827Z,27.00
2018-07-22T05:29:43.123Z,27.00
2018-07-22T05:30:43.059Z,27.30
2018-07-22T05:32:36.360Z,27.10
2018-07-22T05:33:36.277Z,25.50
2018-07-22T05:35:29.557Z,28.00
2018-07-22T05:36:29.498Z,27.10
2018-07-22T05:38:22.788Z,27.20
2018-07-22T05:39:22.708Z,27.80
2018-07-22T05:41:16.109Z,26.20
2018-07-22T05:42:15.927Z,27.20
2018-07-22T05:44:09.207Z,25.90
2018-07-22T05:45:09.149Z,26.10
2018-07-22T05:47:02.549Z,26.60
2018-07-22T05:48:02.365Z,25.90
2018-07-22T05:49:55.644Z,25.40
2018-07-22T05:50:55.584Z,25.90
2018-07-22T05:52:48.887Z,25.10
2018-07-22T05:53:48.805Z,25.80
2018-07-22T05:55:42.086Z,25.50
2018-07-22T05:56:42.026Z,25.70
2018-07-22T05:58:35.398Z,26.20
2018-07-22T05:59:35.317Z,24.30
2018-07-22T06:01:28.620Z,25.50
2018-07-22T06:02:28.540Z,24.80
2018-07-22T06:04:21.926Z,23.90
2018-07-22T06:05:21.760Z,24.00
2018-07-22T06:07:15.060Z,24.70
2018-07-22T06:08:14.981Z,24.20
2018-07-22T06:10:08.261Z,23.90
2018-07-22T06:11:08.201Z,24.30
2018-07-22T06:13:01.502Z,24.30
2018-07-22T06:14:01.423Z,24.80
2018-07-22T06:15:54.707Z,23.80
2018-07-22T06:16:54.645Z,23.30
2018-07-22T06:18:47.936Z,23.40
2018-07-22T06:19:47.859Z,22.40
2018-07-22T06:21:41.159Z,23.20
2018-07-22T06:22:41.081Z,23.70
2018-07-22T06:24:34.363Z,23.50
2018-07-22T06:25:34.305Z,23.70
2018-07-22T06:27:27.707Z,22.40
2018-07-22T06:28:27.526Z,22.10
2018-07-22T06:30:20.808Z,22.20
2018-07-22T06:31:20.749Z,21.90
2018-07-22T06:33:14.051Z,20.50
2018-07-22T06:34:13.972Z,21.00
2018-07-22T06:36:07.379Z,20.70
2018-07-22T06:37:07.320Z,20.50
2018-07-22T06:39:00.624Z,19.70
2018-07-22T06:40:00.548Z,19.50
2018-07-22T06:41:53.956Z,18.80
2018-07-22T06:42:53.785Z,18.30
2018-07-22T06:44:47.074Z,17.00
2018-07-22T06:45:47.020Z,16.80
2018-07-22T06:47:40.334Z,16.50
2018-07-22T06:48:40.258Z,16.80
2018-07-22T06:50:33.557Z,15.70
2018-07-22T06:51:33.504Z,16.00
2018-07-22T06:53:26.821Z,15.60
2018-07-22T06:54:26.822Z,16.00
2018-07-22T06:56:20.045Z,16.30
2018-07-22T06:57:20.017Z,15.00
2018-07-22T06:59:13.400Z,15.60
2018-07-22T07:00:13.340Z,15.40
2018-07-22T07:02:06.647Z,15.20
2018-07-22T07:03:06.578Z,15.00
2018-07-22T07:04:59.931Z,15.10
2018-07-22T07:05:59.826Z,15.10
2018-07-22T07:07:53.145Z,13.00
2018-07-22T07:08:53.077Z,13.60
2018-07-22T07:10:46.378Z,14.10
2018-07-22T07:11:46.326Z,13.80
2018-07-22T07:13:39.648Z,13.40
2018-07-22T07:14:39.577Z,13.30
2018-07-22T07:16:32.879Z,14.10
2018-07-22T07:17:32.829Z,13.40
2018-07-22T07:19:26.141Z,12.90
2018-07-22T07:20:26.071Z,12.80
2018-07-22T07:22:19.489Z,13.60
2018-07-22T07:23:19.334Z,12.70
2018-07-22T07:25:12.731Z,12.90
2018-07-22T07:26:12.577Z,13.30
2018-07-22T07:28:05.991Z,12.70
2018-07-22T07:29:05.819Z,13.00
2018-07-22T07:30:59.110Z,12.30
2018-07-22T07:31:59.060Z,12.00
2018-07-22T07:33:52.370Z,12.70
2018-07-22T07:34:52.303Z,11.70
2018-07-22T07:36:45.596Z,12.70
2018-07-22T07:37:45.548Z,12.50
2018-07-22T07:39:38.857Z,12.60
2018-07-22T07:40:38.790Z,12.40
2018-07-22T07:42:33.101Z,11.70
2018-07-22T07:43:33.033Z,11.90
2018-07-22T07:45:26.325Z,11.70
2018-07-22T07:46:26.278Z,12.10
2018-07-22T07:48:19.590Z,11.20
2018-07-22T07:49:19.522Z,11.10
2018-07-22T07:51:12.825Z,11.60
2018-07-22T07:52:12.778Z,11.10
2018-07-22T07:54:07.101Z,11.40
2018-07-22T07:55:07.031Z,10.70
2018-07-22T07:57:00.335Z,10.90
2018-07-22T07:58:00.287Z,11.10
2018-07-22T07:59:53.607Z,10.90
2018-07-22T08:00:53.540Z,10.90
2018-07-22T08:02:46.897Z,11.40
2018-07-22T08:03:46.795Z,10.70
2018-07-22T08:05:40.102Z,11.10
2018-07-22T08:06:40.048Z,11.70
2018-07-22T08:08:33.408Z,11.30
2018-07-22T08:09:33.337Z,11.20
2018-07-22T08:11:27.641Z,10.50
2018-07-22T08:12:27.590Z,10.60
2018-07-22T08:14:20.909Z,10.40
2018-07-22T08:15:20.841Z,10.00
2018-07-22T08:17:14.142Z,9.40
2018-07-22T08:18:14.092Z,9.30
2018-07-22T08:20:07.509Z,9.50
2018-07-22T08:21:07.340Z,9.30
2018-07-22T08:23:00.658Z,9.70
2018-07-22T08:24:00.588Z,9.40
2018-07-22T08:25:53.888Z,8.60
2018-07-22T08:26:53.835Z,8.60
2018-07-22T08:28:47.143Z,9.10
2018-07-22T08:29:47.074Z,9.10
2018-07-22T08:31:40.373Z,9.00
2018-07-22T08:32:40.318Z,8.80
2018-07-22T08:34:33.733Z,9.60
2018-07-22T08:35:33.562Z,10.10
2018-07-22T08:37:26.366Z,9.50
2018-07-22T08:38:26.313Z,9.60
2018-07-22T08:40:19.626Z,9.00
2018-07-22T08:41:19.573Z,9.80
2018-07-22T08:43:12.870Z,8.10
2018-07-22T08:44:12.800Z,8.10
2018-07-22T08:46:06.191Z,9.10
2018-07-22T08:47:06.046Z,8.80
2018-07-22T08:48:59.405Z,7.80
2018-07-22T08:49:59.335Z,8.30
2018-07-22T08:51:52.631Z,7.20
2018-07-22T08:52:52.576Z,7.70
2018-07-22T08:54:45.889Z,6.20
2018-07-22T08:55:45.818Z,5.80
2018-07-22T08:57:39.113Z,6.20
2018-07-22T08:58:39.059Z,5.80
2018-07-22T09:00:32.375Z,5.70
2018-07-22T09:01:32.302Z,5.60
2018-07-22T09:03:25.617Z,5.80
2018-07-22T09:04:25.641Z,5.30
2018-07-22T09:06:18.838Z,5.60
2018-07-22T09:07:18.788Z,5.40
2018-07-22T09:09:12.120Z,5.20
2018-07-22T09:10:12.048Z,5.30
2018-07-22T09:12:05.390Z,5.30
2018-07-22T09:13:05.337Z,5.10
2018-07-22T09:14:58.651Z,5.10
2018-07-22T09:15:58.581Z,5.10
2018-07-22T09:17:51.915Z,5.30
2018-07-22T09:18:51.826Z,5.00
2018-07-22T09:20:45.144Z,6.20
2018-07-22T09:21:45.072Z,5.90
2018-07-22T09:23:38.390Z,5.00
2018-07-22T09:24:38.317Z,4.90
2018-07-22T09:26:31.614Z,5.00
2018-07-22T09:27:31.563Z,5.50
2018-07-22T09:29:24.977Z,5.20
2018-07-22T09:30:24.809Z,5.60
2018-07-22T09:32:18.096Z,5.20
2018-07-22T09:33:18.045Z,4.70
2018-07-22T09:35:11.411Z,4.60
2018-07-22T09:36:11.418Z,5.10
2018-07-22T09:38:05.629Z,5.00
2018-07-22T09:39:05.576Z,4.80
2018-07-22T09:40:58.898Z,4.80
2018-07-22T09:41:58.812Z,4.90
2018-07-22T09:43:52.119Z,4.80
2018-07-22T09:44:52.044Z,4.90
2018-07-22T09:46:45.396Z,4.60
2018-07-22T09:47:45.345Z,4.80
2018-07-22T09:49:38.759Z,5.30
2018-07-22T09:50:38.582Z,5.10
2018-07-22T09:52:32.870Z,5.10
2018-07-22T09:53:32.985Z,5.10
2018-07-22T09:55:26.128Z,4.70
2018-07-22T09:56:26.061Z,4.60
2018-07-22T09:58:19.403Z,4.90
2018-07-22T09:59:19.368Z,4.50
2018-07-22T10:01:12.659Z,4.40
2018-07-22T10:02:12.588Z,4.40
2018-07-22T10:04:05.897Z,4.30
2018-07-22T10:05:05.830Z,4.60
2018-07-22T10:06:59.226Z,4.70
2018-07-22T10:07:59.068Z,4.50
2018-07-22T10:09:52.377Z,4.30
2018-07-22T10:10:52.309Z,3.90
2018-07-22T10:12:45.607Z,4.30
2018-07-22T10:13:45.550Z,4.20
2018-07-22T10:15:38.863Z,4.60
2018-07-22T10:16:38.791Z,4.40
2018-07-22T10:18:32.083Z,4.40
2018-07-22T10:19:32.034Z,4.50
2018-07-22T10:21:25.417Z,4.50
2018-07-22T10:22:25.345Z,4.30
2018-07-22T10:24:18.663Z,4.10
2018-07-22T10:25:18.588Z,4.70
2018-07-22T10:27:11.899Z,4.70
2018-07-22T10:28:11.849Z,4.90
2018-07-22T10:30:05.162Z,4.40
2018-07-22T10:31:05.091Z,4.70
2018-07-22T10:32:58.384Z,5.10
2018-07-22T10:33:58.333Z,4.60
2018-07-22T10:35:51.682Z,4.80
2018-07-22T10:36:51.587Z,5.10
2018-07-22T10:38:44.891Z,4.90
2018-07-22T10:39:44.840Z,4.90
2018-07-22T10:41:38.153Z,4.80
2018-07-22T10:42:38.081Z,4.90
2018-07-22T10:44:31.417Z,5.50
2018-07-22T10:45:31.352Z,5.10
2018-07-22T10:47:24.751Z,5.00
2018-07-22T10:48:24.593Z,4.70
2018-07-22T10:50:18.012Z,4.70
2018-07-22T10:51:17.834Z,4.90
2018-07-22T10:53:11.137Z,5.10
2018-07-22T10:54:11.087Z,5.40
2018-07-22T10:56:04.400Z,4.90
2018-07-22T10:57:04.332Z,4.70
2018-07-22T10:58:57.625Z,4.40
2018-07-22T10:59:57.575Z,4.60
2018-07-22T11:01:50.993Z,4.80
2018-07-22T11:02:50.818Z,4.70
2018-07-22T11:04:44.133Z,4.80
2018-07-22T11:05:44.068Z,5.00
2018-07-22T11:07:37.396Z,5.70
2018-07-22T11:08:37.351Z,5.90
2018-07-22T11:10:31.274Z,5.20
2018-07-22T11:11:30.596Z,5.00
2018-07-22T11:13:23.890Z,4.90
2018-07-22T11:14:23.862Z,5.10
2018-07-22T11:16:17.153Z,5.30
2018-07-22T11:17:17.087Z,5.00
2018-07-22T11:19:10.381Z,5.10
2018-07-22T11:20:10.332Z,5.30
2018-07-22T11:22:03.646Z,4.80
2018-07-22T11:23:03.578Z,4.90
2018-07-22T11:24:56.892Z,4.50
2018-07-22T11:25:56.820Z,5.20
2018-07-22T11:27:50.114Z,4.70
2018-07-22T11:28:50.109Z,4.90
2018-07-22T11:30:43.418Z,5.10
2018-07-22T11:31:43.347Z,5.00
2018-07-22T11:33:36.661Z,4.90
2018-07-22T11:34:36.611Z,5.00
2018-07-22T11:36:29.933Z,5.30
2018-07-22T11:37:29.868Z,5.40
2018-07-22T11:39:23.160Z,5.50
2018-07-22T11:40:23.110Z,5.70
2018-07-22T11:42:16.430Z,5.30
2018-07-22T11:43:16.363Z,5.10
2018-07-22T11:45:09.672Z,5.90
2018-07-22T11:46:09.603Z,5.70
2018-07-22T11:48:02.896Z,6.00
2018-07-22T11:49:02.846Z,6.00
2018-07-22T11:50:56.163Z,5.80
2018-07-22T11:51:56.087Z,5.80
2018-07-22T11:53:49.387Z,5.50
2018-07-22T11:54:49.335Z,5.70
2018-07-22T11:56:42.643Z,5.20
2018-07-22T11:57:42.573Z,5.20
2018-07-22T11:59:35.863Z,5.70
2018-07-22T12:00:35.802Z,5.60
2018-07-22T12:02:29.114Z,5.80
2018-07-22T12:03:29.046Z,5.70
2018-07-22T12:05:22.352Z,6.00
2018-07-22T12:06:22.283Z,5.40
2018-07-22T12:08:15.701Z,5.50
2018-07-22T12:09:15.521Z,5.70
2018-07-22T12:11:08.828Z,5.40
2018-07-22T12:12:08.764Z,5.70
2018-07-22T12:14:02.061Z,5.50
2018-07-22T12:15:02.004Z,5.90
2018-07-22T12:16:55.322Z,5.80
2018-07-22T12:17:55.240Z,5.70
2018-07-22T12:19:48.542Z,5.50
2018-07-22T12:20:48.490Z,5.60
2018-07-22T12:22:41.798Z,5.10
2018-07-22T12:23:41.777Z,4.50
2018-07-22T12:25:36.035Z,5.40
2018-07-22T12:26:35.972Z,5.70
2018-07-22T12:28:29.395Z,6.00
2018-07-22T12:29:29.342Z,5.40
2018-07-22T12:31:22.652Z,5.60
2018-07-22T12:32:22.582Z,5.40
2018-07-22T12:34:15.912Z,5.40
2018-07-22T12:35:15.821Z,5.80
2018-07-22T12:37:09.130Z,5.80
2018-07-22T12:38:09.061Z,6.00
2018-07-22T12:40:02.352Z,5.90
2018-07-22T12:41:02.297Z,5.30
2018-07-22T12:42:55.692Z,5.10
2018-07-22T12:43:55.622Z,5.30
2018-07-22T12:45:48.930Z,5.60
2018-07-22T12:46:48.860Z,5.80
2018-07-22T12:48:43.147Z,5.50
2018-07-22T12:49:43.096Z,5.40
2018-07-22T12:51:36.404Z,5.60
2018-07-22T12:52:36.339Z,5.10
2018-07-22T12:54:29.632Z,5.50
2018-07-22T12:55:29.573Z,5.60
2018-07-22T12:57:22.880Z,5.70
2018-07-22T12:58:22.810Z,5.60
2018-07-22T13:00:17.099Z,5.50
2018-07-22T13:01:17.051Z,5.00
2018-07-22T13:03:10.358Z,5.90
2018-07-22T13:04:10.283Z,5.30
2018-07-22T13:06:03.593Z,5.20
2018-07-22T13:07:03.519Z,5.30
2018-07-22T13:08:56.811Z,5.30
2018-07-22T13:09:56.765Z,6.00
2018-07-22T13:11:50.076Z,4.90
2018-07-22T13:12:50.005Z,5.10
2018-07-22T13:14:43.403Z,4.90
2018-07-22T13:15:43.347Z,4.80
2018-07-22T13:17:36.664Z,5.50
2018-07-22T13:18:36.595Z,5.40
2018-07-22T13:20:29.893Z,5.40
2018-07-22T13:21:29.843Z,5.30
2018-07-22T13:23:23.162Z,5.10
2018-07-22T13:24:23.084Z,5.00
2018-07-22T13:26:16.406Z,5.10
2018-07-22T13:27:16.335Z,4.80
2018-07-22T13:29:10.636Z,5.10
2018-07-22T13:30:10.583Z,5.50
2018-07-22T13:32:03.999Z,5.20
2018-07-22T13:33:03.829Z,5.10
2018-07-22T13:34:57.726Z,4.70
2018-07-22T13:35:57.078Z,4.70
2018-07-22T13:37:51.486Z,4.90
2018-07-22T13:38:51.414Z,4.90
2018-07-22T13:40:44.714Z,4.90
2018-07-22T13:41:44.665Z,5.60
2018-07-22T13:43:37.982Z,5.10
2018-07-22T13:44:37.909Z,4.80
2018-07-22T13:46:31.440Z,5.30
2018-07-22T13:47:31.154Z,5.30
2018-07-22T13:49:24.542Z,4.40
2018-07-22T13:50:24.386Z,4.80
2018-07-22T13:52:17.702Z,5.00
2018-07-22T13:53:17.640Z,4.70
2018-07-22T13:55:10.919Z,4.90
2018-07-22T13:56:10.869Z,4.40
2018-07-22T13:58:04.175Z,4.30
2018-07-22T13:59:04.110Z,4.80
2018-07-22T14:00:57.402Z,4.50
2018-07-22T14:01:57.356Z,4.70
2018-07-22T14:03:50.658Z,5.40
2018-07-22T14:04:50.591Z,5.30
2018-07-22T14:06:44.506Z,5.40
2018-07-22T14:07:43.825Z,6.60
2018-07-22T14:09:37.127Z,4.60
2018-07-22T14:10:37.076Z,4.40
2018-07-22T14:12:30.490Z,4.50
2018-07-22T14:13:30.313Z,4.90
2018-07-22T14:15:23.600Z,5.00
2018-07-22T14:16:23.550Z,4.80
2018-07-22T14:18:16.858Z,5.00
2018-07-22T14:19:16.785Z,5.10
2018-07-22T14:21:10.074Z,5.20
2018-07-22T14:22:10.021Z,4.80
2018-07-22T14:24:03.413Z,5.30
2018-07-22T14:25:03.359Z,5.30
2018-07-22T14:26:56.647Z,5.20
2018-07-22T14:27:56.580Z,5.20
2018-07-22T14:29:49.862Z,5.40
2018-07-22T14:30:49.808Z,5.20
2018-07-22T14:32:43.111Z,4.90
2018-07-22T14:33:43.041Z,5.20
2018-07-22T14:35:36.325Z,5.30
2018-07-22T14:36:36.279Z,5.00
2018-07-22T14:38:29.687Z,4.80
2018-07-22T14:39:29.506Z,4.60
2018-07-22T14:41:22.802Z,4.70
2018-07-22T14:42:22.748Z,5.00
2018-07-22T14:44:17.065Z,4.60
2018-07-22T14:45:16.992Z,5.20
2018-07-22T14:47:10.320Z,5.30
2018-07-22T14:48:10.232Z,4.90
2018-07-22T14:50:03.528Z,5.30
2018-07-22T14:51:03.476Z,5.50
2018-07-22T14:52:56.790Z,5.10
2018-07-22T14:53:56.720Z,5.20
2018-07-22T14:55:50.117Z,5.10
2018-07-22T14:56:49.960Z,5.10
2018-07-22T14:58:43.415Z,4.60
2018-07-22T14:59:43.347Z,4.40
2018-07-22T15:01:36.643Z,5.20
2018-07-22T15:02:36.586Z,5.10
2018-07-22T15:04:29.901Z,5.30
2018-07-22T15:05:29.829Z,5.30
2018-07-22T15:07:23.141Z,5.10
2018-07-22T15:08:23.070Z,4.90
2018-07-22T15:10:16.365Z,4.90
2018-07-22T15:11:16.313Z,5.00
2018-07-22T15:13:09.627Z,4.80
2018-07-22T15:14:09.559Z,4.80
2018-07-22T15:16:02.859Z,5.10
2018-07-22T15:17:02.799Z,5.20
2018-07-22T15:18:56.115Z,5.70
2018-07-22T15:19:56.044Z,6.00
2018-07-22T15:21:49.394Z,5.50
2018-07-22T15:22:49.343Z,5.80
2018-07-22T15:24:42.652Z,5.30
2018-07-22T15:25:42.585Z,5.60
2018-07-22T15:27:35.903Z,5.50
2018-07-22T15:28:35.831Z,5.50
2018-07-22T15:30:29.131Z,7.00
2018-07-22T15:31:29.077Z,6.40
2018-07-22T15:33:22.394Z,5.20
2018-07-22T15:34:22.322Z,5.80
2018-07-22T15:36:15.617Z,5.40
2018-07-22T15:37:15.568Z,5.60
2018-07-22T15:39:09.885Z,5.20
2018-07-22T15:40:09.810Z,5.10
2018-07-22T15:42:03.106Z,5.30
2018-07-22T15:43:03.061Z,5.00
2018-07-22T15:44:57.416Z,5.80
2018-07-22T15:45:57.343Z,5.60
2018-07-22T15:47:50.652Z,5.60
2018-07-22T15:48:50.585Z,5.80
2018-07-22T15:50:43.880Z,5.40
2018-07-22T15:51:43.828Z,5.10
2018-07-22T15:53:37.141Z,5.70
2018-07-22T15:54:37.069Z,5.70
2018-07-22T15:56:30.961Z,5.30
2018-07-22T15:57:30.303Z,5.40
2018-07-22T15:59:23.626Z,5.60
2018-07-22T16:00:23.556Z,5.90
2018-07-22T16:02:16.854Z,5.60
2018-07-22T16:03:16.802Z,6.00
2018-07-22T16:05:10.114Z,6.20
2018-07-22T16:06:10.040Z,5.50
2018-07-22T16:08:03.374Z,5.70
2018-07-22T16:09:03.301Z,5.60
2018-07-22T16:10:56.106Z,6.10
2018-07-22T16:11:56.052Z,5.40
2018-07-22T16:13:49.416Z,5.40
2018-07-22T16:14:49.341Z,6.00
2018-07-22T16:16:42.637Z,6.30
2018-07-22T16:17:42.583Z,5.70
2018-07-22T16:19:35.898Z,5.80
2018-07-22T16:20:35.825Z,5.80
2018-07-22T16:22:29.121Z,6.20
2018-07-22T16:23:29.069Z,6.30
2018-07-22T16:25:22.386Z,6.20
2018-07-22T16:26:22.311Z,6.40
2018-07-22T16:28:15.616Z,5.70
2018-07-22T16:29:15.544Z,5.90
2018-07-22T16:31:08.842Z,5.90
2018-07-22T16:32:08.786Z,5.60
2018-07-22T16:34:03.103Z,6.00
2018-07-22T16:35:03.030Z,5.70
2018-07-22T16:36:56.331Z,5.80
2018-07-22T16:37:56.275Z,5.90
2018-07-22T16:39:49.593Z,5.60
2018-07-22T16:40:49.518Z,5.60
2018-07-22T16:42:42.815Z,5.50
2018-07-22T16:43:42.762Z,5.40
2018-07-22T16:45:36.076Z,6.30
2018-07-22T16:46:36.005Z,5.30
2018-07-22T16:48:29.447Z,5.30
2018-07-22T16:49:29.344Z,5.70
2018-07-22T16:51:23.646Z,5.80
2018-07-22T16:52:23.588Z,5.70
2018-07-22T16:54:16.906Z,5.60
2018-07-22T16:55:16.835Z,5.60
2018-07-22T16:57:10.131Z,5.30
2018-07-22T16:58:10.076Z,5.90
2018-07-22T17:00:03.421Z,6.10
2018-07-22T17:01:03.343Z,5.60
2018-07-22T17:02:57.639Z,5.40
2018-07-22T17:03:57.589Z,5.80
2018-07-22T17:05:50.905Z,5.40
2018-07-22T17:06:50.836Z,5.70
2018-07-22T17:08:44.152Z,5.60
2018-07-22T17:09:44.082Z,5.20
2018-07-22T17:11:37.397Z,5.60
2018-07-22T17:12:37.348Z,6.00
2018-07-22T17:14:30.660Z,5.70
2018-07-22T17:15:30.588Z,5.50
2018-07-22T17:17:23.892Z,5.20
2018-07-22T17:18:23.829Z,5.90
2018-07-22T17:20:17.165Z,6.00
2018-07-22T17:21:17.073Z,5.30
2018-07-22T17:23:10.367Z,6.10
2018-07-22T17:24:10.313Z,6.40
2018-07-22T17:26:03.649Z,5.60
2018-07-22T17:27:03.576Z,6.10
2018-07-22T17:28:56.876Z,5.70
2018-07-22T17:29:56.803Z,6.20
2018-07-22T17:31:50.100Z,6.00
2018-07-22T17:32:50.047Z,5.90
2018-07-22T17:34:43.414Z,6.10
2018-07-22T17:35:43.341Z,5.70
2018-07-22T17:37:36.635Z,5.50
2018-07-22T17:38:36.582Z,5.20
2018-07-22T17:40:29.993Z,5.40
2018-07-22T17:41:29.819Z,5.40
2018-07-22T17:43:23.114Z,6.40
2018-07-22T17:44:23.061Z,5.70
2018-07-22T17:46:16.373Z,5.80
2018-07-22T17:47:16.301Z,5.60
2018-07-22T17:49:09.714Z,6.00
2018-07-22T17:50:09.545Z,6.00
2018-07-22T17:52:02.839Z,5.80
2018-07-22T17:53:02.782Z,5.70
2018-07-22T17:54:56.104Z,5.60
2018-07-22T17:55:56.027Z,5.40
2018-07-22T17:57:49.399Z,5.40
2018-07-22T17:58:49.343Z,5.60
2018-07-22T18:00:42.660Z,5.50
2018-07-22T18:01:42.586Z,5.80
2018-07-22T18:03:35.880Z,6.00
2018-07-22T18:04:35.826Z,5.10
2018-07-22T18:06:29.147Z,5.70
2018-07-22T18:07:29.071Z,5.60
2018-07-22T18:09:22.482Z,5.40
2018-07-22T18:10:22.311Z,5.40
2018-07-22T18:12:15.618Z,6.10
2018-07-22T18:13:15.553Z,6.30
2018-07-22T18:15:08.863Z,5.80
2018-07-22T18:16:08.792Z,5.70
2018-07-22T18:18:02.086Z,5.60
2018-07-22T18:19:02.025Z,6.00
2018-07-22T18:20:55.452Z,6.10
2018-07-22T18:21:55.381Z,6.00
2018-07-22T18:23:49.684Z,6.30
2018-07-22T18:24:49.618Z,6.10
2018-07-22T18:26:42.932Z,6.30
2018-07-22T18:27:42.858Z,5.30
2018-07-22T18:29:36.172Z,5.80
2018-07-22T18:30:36.094Z,5.50
2018-07-22T18:32:29.401Z,6.10
2018-07-22T18:33:29.344Z,5.70
2018-07-22T18:35:22.661Z,5.60
2018-07-22T18:36:22.584Z,6.00
2018-07-22T18:38:15.876Z,5.80
2018-07-22T18:39:15.876Z,6.20
2018-07-22T18:41:09.135Z,5.90
2018-07-22T18:42:09.061Z,5.90
2018-07-22T18:44:02.575Z,6.10
2018-07-22T18:45:02.521Z,6.20
2018-07-22T18:46:55.835Z,8.00
2018-07-22T18:47:55.763Z,9.20
2018-07-22T18:49:49.100Z,8.00
2018-07-22T18:50:49.015Z,6.90
2018-07-22T18:52:42.574Z,8.20
2018-07-22T18:53:42.523Z,7.60
2018-07-22T18:55:35.832Z,6.50